<?xml version="1.0" encoding="UTF-8" standalone="no" ?>
<gpx xmlns="http://www.topografix.com/GPX/1/1" xmlns:xsi="http://www.w3.org/2001/XMLSchema-instance" xsi:schemaLocation="http://www.topografix.com/GPX/1/1 http://www.topografix.com/GPX/1/1/gpx.xsd" version="1.1" creator="VisuGPX - https://www.visugpx.com">
  <metadata>
    <name>sospel -menton gr52</name>
    <desc><![CDATA[sospel -menton gr52 via baousset ]]></desc>
  </metadata>
  <trk>
    <name><![CDATA[20171028075216-2rpas]]></name>
    <trkseg>
      <trkpt lat="43.8773" lon="7.44997">
        <ele>344.7</ele>
        <time>2016-08-21T21:35:04Z</time>
      </trkpt>
      <trkpt lat="43.87654" lon="7.45055">
        <ele>350.8</ele>
        <time>2016-08-21T21:35:24Z</time>
      </trkpt>
      <trkpt lat="43.87671" lon="7.45205">
        <ele>350.3</ele>
        <time>2016-08-21T21:35:44Z</time>
      </trkpt>
      <trkpt lat="43.87595" lon="7.45243">
        <ele>363.4</ele>
        <time>2016-08-21T21:36:04Z</time>
      </trkpt>
      <trkpt lat="43.87549" lon="7.45473">
        <ele>368.8</ele>
        <time>2016-08-21T21:36:24Z</time>
      </trkpt>
      <trkpt lat="43.87513" lon="7.45454">
        <ele>381.3</ele>
        <time>2016-08-21T21:36:44Z</time>
      </trkpt>
      <trkpt lat="43.87511" lon="7.45514">
        <ele>380.8</ele>
        <time>2016-08-21T21:37:04Z</time>
      </trkpt>
      <trkpt lat="43.87471" lon="7.45632">
        <ele>394.7</ele>
        <time>2016-08-21T21:37:24Z</time>
      </trkpt>
      <trkpt lat="43.87446" lon="7.45688">
        <ele>402.3</ele>
        <time>2016-08-21T21:37:44Z</time>
      </trkpt>
      <trkpt lat="43.87463" lon="7.45739">
        <ele>403.7</ele>
        <time>2016-08-21T21:38:04Z</time>
      </trkpt>
      <trkpt lat="43.87446" lon="7.45947">
        <ele>423.3</ele>
        <time>2016-08-21T21:38:24Z</time>
      </trkpt>
      <trkpt lat="43.87395" lon="7.46005">
        <ele>436.6</ele>
        <time>2016-08-21T21:38:44Z</time>
      </trkpt>
      <trkpt lat="43.87369" lon="7.4605">
        <ele>434.7</ele>
        <time>2016-08-21T21:39:04Z</time>
      </trkpt>
      <trkpt lat="43.8732" lon="7.46093">
        <ele>451.1</ele>
        <time>2016-08-21T21:39:24Z</time>
      </trkpt>
      <trkpt lat="43.87355" lon="7.46117">
        <ele>445.6</ele>
        <time>2016-08-21T21:39:44Z</time>
      </trkpt>
      <trkpt lat="43.87361" lon="7.46134">
        <ele>450.8</ele>
        <time>2016-08-21T21:40:04Z</time>
      </trkpt>
      <trkpt lat="43.87419" lon="7.4616">
        <ele>456.3</ele>
        <time>2016-08-21T21:40:24Z</time>
      </trkpt>
      <trkpt lat="43.87419" lon="7.46248">
        <ele>466</ele>
        <time>2016-08-21T21:40:44Z</time>
      </trkpt>
      <trkpt lat="43.87429" lon="7.46267">
        <ele>463.9</ele>
        <time>2016-08-21T21:41:04Z</time>
      </trkpt>
      <trkpt lat="43.87425" lon="7.46424">
        <ele>474.5</ele>
        <time>2016-08-21T21:41:24Z</time>
      </trkpt>
      <trkpt lat="43.87457" lon="7.46518">
        <ele>470.9</ele>
        <time>2016-08-21T21:41:44Z</time>
      </trkpt>
      <trkpt lat="43.87389" lon="7.46733">
        <ele>526.8</ele>
        <time>2016-08-21T21:42:04Z</time>
      </trkpt>
      <trkpt lat="43.87343" lon="7.46771">
        <ele>541.1</ele>
        <time>2016-08-21T21:42:24Z</time>
      </trkpt>
      <trkpt lat="43.87284" lon="7.46887">
        <ele>536.4</ele>
        <time>2016-08-21T21:42:44Z</time>
      </trkpt>
      <trkpt lat="43.87182" lon="7.46906">
        <ele>563.8</ele>
        <time>2016-08-21T21:43:04Z</time>
      </trkpt>
      <trkpt lat="43.87125" lon="7.46947">
        <ele>575.4</ele>
        <time>2016-08-21T21:43:24Z</time>
      </trkpt>
      <trkpt lat="43.87132" lon="7.47305">
        <ele>589.6</ele>
        <time>2016-08-21T21:43:44Z</time>
      </trkpt>
      <trkpt lat="43.87054" lon="7.47404">
        <ele>607.5</ele>
        <time>2016-08-21T21:44:04Z</time>
      </trkpt>
      <trkpt lat="43.87006" lon="7.47529">
        <ele>625.1</ele>
        <time>2016-08-21T21:44:24Z</time>
      </trkpt>
      <trkpt lat="43.86939" lon="7.47503">
        <ele>631.7</ele>
        <time>2016-08-21T21:44:44Z</time>
      </trkpt>
      <trkpt lat="43.86825" lon="7.47492">
        <ele>653.8</ele>
        <time>2016-08-21T21:45:04Z</time>
      </trkpt>
      <trkpt lat="43.86692" lon="7.47647">
        <ele>672.7</ele>
        <time>2016-08-21T21:45:24Z</time>
      </trkpt>
      <trkpt lat="43.86404" lon="7.47662">
        <ele>750.6</ele>
        <time>2016-08-21T21:45:44Z</time>
      </trkpt>
      <trkpt lat="43.86419" lon="7.47694">
        <ele>747.3</ele>
        <time>2016-08-21T21:46:04Z</time>
      </trkpt>
      <trkpt lat="43.86396" lon="7.47687">
        <ele>755.1</ele>
        <time>2016-08-21T21:46:24Z</time>
      </trkpt>
      <trkpt lat="43.86309" lon="7.47651">
        <ele>784.7</ele>
        <time>2016-08-21T21:46:44Z</time>
      </trkpt>
      <trkpt lat="43.86326" lon="7.47685">
        <ele>784.7</ele>
        <time>2016-08-21T21:47:04Z</time>
      </trkpt>
      <trkpt lat="43.86261" lon="7.47638">
        <ele>803.7</ele>
        <time>2016-08-21T21:47:24Z</time>
      </trkpt>
      <trkpt lat="43.86268" lon="7.47692">
        <ele>808.2</ele>
        <time>2016-08-21T21:47:44Z</time>
      </trkpt>
      <trkpt lat="43.86183" lon="7.47713">
        <ele>799.1</ele>
        <time>2016-08-21T21:48:04Z</time>
      </trkpt>
      <trkpt lat="43.86115" lon="7.477">
        <ele>796.2</ele>
        <time>2016-08-21T21:48:24Z</time>
      </trkpt>
      <trkpt lat="43.86056" lon="7.47645">
        <ele>787.9</ele>
        <time>2016-08-21T21:48:44Z</time>
      </trkpt>
      <trkpt lat="43.86036" lon="7.47576">
        <ele>792.1</ele>
        <time>2016-08-21T21:49:04Z</time>
      </trkpt>
      <trkpt lat="43.85958" lon="7.47548">
        <ele>793.1</ele>
        <time>2016-08-21T21:49:24Z</time>
      </trkpt>
      <trkpt lat="43.85944" lon="7.47587">
        <ele>783</ele>
        <time>2016-08-21T21:49:44Z</time>
      </trkpt>
      <trkpt lat="43.85824" lon="7.47677">
        <ele>793.6</ele>
        <time>2016-08-21T21:50:04Z</time>
      </trkpt>
      <trkpt lat="43.85793" lon="7.4769">
        <ele>802.3</ele>
        <time>2016-08-21T21:50:24Z</time>
      </trkpt>
      <trkpt lat="43.85763" lon="7.47741">
        <ele>801.5</ele>
        <time>2016-08-21T21:50:44Z</time>
      </trkpt>
      <trkpt lat="43.85722" lon="7.47767">
        <ele>809.6</ele>
        <time>2016-08-21T21:51:04Z</time>
      </trkpt>
      <trkpt lat="43.85687" lon="7.47812">
        <ele>805.7</ele>
        <time>2016-08-21T21:51:24Z</time>
      </trkpt>
      <trkpt lat="43.85618" lon="7.47816">
        <ele>812.1</ele>
        <time>2016-08-21T21:51:44Z</time>
      </trkpt>
      <trkpt lat="43.8559" lon="7.4784">
        <ele>809.1</ele>
        <time>2016-08-21T21:52:04Z</time>
      </trkpt>
      <trkpt lat="43.85638" lon="7.47893">
        <ele>796.7</ele>
        <time>2016-08-21T21:52:24Z</time>
      </trkpt>
      <trkpt lat="43.85649" lon="7.47943">
        <ele>816.4</ele>
        <time>2016-08-21T21:52:44Z</time>
      </trkpt>
      <trkpt lat="43.85672" lon="7.47977">
        <ele>829.2</ele>
        <time>2016-08-21T21:53:04Z</time>
      </trkpt>
      <trkpt lat="43.85672" lon="7.48024">
        <ele>832.3</ele>
        <time>2016-08-21T21:53:24Z</time>
      </trkpt>
      <trkpt lat="43.85627" lon="7.48046">
        <ele>833.9</ele>
        <time>2016-08-21T21:53:44Z</time>
      </trkpt>
      <trkpt lat="43.85537" lon="7.48057">
        <ele>846.6</ele>
        <time>2016-08-21T21:54:04Z</time>
      </trkpt>
      <trkpt lat="43.85428" lon="7.48136">
        <ele>847.7</ele>
        <time>2016-08-21T21:54:24Z</time>
      </trkpt>
      <trkpt lat="43.85353" lon="7.48237">
        <ele>844.3</ele>
        <time>2016-08-21T21:54:44Z</time>
      </trkpt>
      <trkpt lat="43.85277" lon="7.48299">
        <ele>872</ele>
        <time>2016-08-21T21:55:04Z</time>
      </trkpt>
      <trkpt lat="43.8522" lon="7.48256">
        <ele>895.4</ele>
        <time>2016-08-21T21:55:24Z</time>
      </trkpt>
      <trkpt lat="43.85202" lon="7.48286">
        <ele>903.7</ele>
        <time>2016-08-21T21:55:44Z</time>
      </trkpt>
      <trkpt lat="43.85157" lon="7.48265">
        <ele>924.6</ele>
        <time>2016-08-21T21:56:04Z</time>
      </trkpt>
      <trkpt lat="43.8516" lon="7.48314">
        <ele>938.7</ele>
        <time>2016-08-21T21:56:24Z</time>
      </trkpt>
      <trkpt lat="43.85146" lon="7.48357">
        <ele>965.3</ele>
        <time>2016-08-21T21:56:44Z</time>
      </trkpt>
      <trkpt lat="43.85138" lon="7.4849">
        <ele>997.2</ele>
        <time>2016-08-21T21:57:04Z</time>
      </trkpt>
      <trkpt lat="43.84993" lon="7.48681">
        <ele>1029.8</ele>
        <time>2016-08-21T21:57:24Z</time>
      </trkpt>
      <trkpt lat="43.84951" lon="7.48823">
        <ele>1039.2</ele>
        <time>2016-08-21T21:57:44Z</time>
      </trkpt>
      <trkpt lat="43.84884" lon="7.48872">
        <ele>1035.5</ele>
        <time>2016-08-21T21:58:04Z</time>
      </trkpt>
      <trkpt lat="43.84798" lon="7.48992">
        <ele>1027.1</ele>
        <time>2016-08-21T21:58:24Z</time>
      </trkpt>
      <trkpt lat="43.8479" lon="7.49033">
        <ele>1026.4</ele>
        <time>2016-08-21T21:58:44Z</time>
      </trkpt>
      <trkpt lat="43.84737" lon="7.49151">
        <ele>1033.5</ele>
        <time>2016-08-21T21:59:04Z</time>
      </trkpt>
      <trkpt lat="43.84711" lon="7.49172">
        <ele>1026.7</ele>
        <time>2016-08-21T21:59:24Z</time>
      </trkpt>
      <trkpt lat="43.84722" lon="7.49232">
        <ele>1024.8</ele>
        <time>2016-08-21T21:59:44Z</time>
      </trkpt>
      <trkpt lat="43.84674" lon="7.49329">
        <ele>1017.7</ele>
        <time>2016-08-21T22:00:04Z</time>
      </trkpt>
      <trkpt lat="43.84612" lon="7.49368">
        <ele>1014.1</ele>
        <time>2016-08-21T22:00:24Z</time>
      </trkpt>
      <trkpt lat="43.84558" lon="7.49582">
        <ele>1031.8</ele>
        <time>2016-08-21T22:00:44Z</time>
      </trkpt>
      <trkpt lat="43.84501" lon="7.49679">
        <ele>1033.6</ele>
        <time>2016-08-21T22:01:04Z</time>
      </trkpt>
      <trkpt lat="43.84479" lon="7.49745">
        <ele>1045.8</ele>
        <time>2016-08-21T22:01:24Z</time>
      </trkpt>
      <trkpt lat="43.8445" lon="7.49784">
        <ele>1047</ele>
        <time>2016-08-21T22:01:44Z</time>
      </trkpt>
      <trkpt lat="43.84416" lon="7.49962">
        <ele>1066.2</ele>
        <time>2016-08-21T22:02:04Z</time>
      </trkpt>
      <trkpt lat="43.84378" lon="7.49979">
        <ele>1076.4</ele>
        <time>2016-08-21T22:02:24Z</time>
      </trkpt>
      <trkpt lat="43.8436" lon="7.50048">
        <ele>1080.1</ele>
        <time>2016-08-21T22:02:44Z</time>
      </trkpt>
      <trkpt lat="43.84316" lon="7.50095">
        <ele>1091.9</ele>
        <time>2016-08-21T22:03:04Z</time>
      </trkpt>
      <trkpt lat="43.84276" lon="7.50183">
        <ele>1109.7</ele>
        <time>2016-08-21T22:03:24Z</time>
      </trkpt>
      <trkpt lat="43.84255" lon="7.50136">
        <ele>1107</ele>
        <time>2016-08-21T22:03:44Z</time>
      </trkpt>
      <trkpt lat="43.84182" lon="7.50157">
        <ele>1100</ele>
        <time>2016-08-21T22:04:04Z</time>
      </trkpt>
      <trkpt lat="43.84053" lon="7.50164">
        <ele>1074.5</ele>
        <time>2016-08-21T22:04:24Z</time>
      </trkpt>
      <trkpt lat="43.83911" lon="7.50275">
        <ele>1067.2</ele>
        <time>2016-08-21T22:04:44Z</time>
      </trkpt>
      <trkpt lat="43.83848" lon="7.5028">
        <ele>1053.1</ele>
        <time>2016-08-21T22:05:04Z</time>
      </trkpt>
      <trkpt lat="43.83632" lon="7.50355">
        <ele>1006.9</ele>
        <time>2016-08-21T22:05:24Z</time>
      </trkpt>
      <trkpt lat="43.83577" lon="7.50352">
        <ele>995.1</ele>
        <time>2016-08-21T22:05:44Z</time>
      </trkpt>
      <trkpt lat="43.8349" lon="7.50372">
        <ele>988</ele>
        <time>2016-08-21T22:06:04Z</time>
      </trkpt>
      <trkpt lat="43.83369" lon="7.50331">
        <ele>970.2</ele>
        <time>2016-08-21T22:06:24Z</time>
      </trkpt>
      <trkpt lat="43.83301" lon="7.50329">
        <ele>968.3</ele>
        <time>2016-08-21T22:06:44Z</time>
      </trkpt>
      <trkpt lat="43.83264" lon="7.50342">
        <ele>965.3</ele>
        <time>2016-08-21T22:07:04Z</time>
      </trkpt>
      <trkpt lat="43.83208" lon="7.50325">
        <ele>966.3</ele>
        <time>2016-08-21T22:07:24Z</time>
      </trkpt>
      <trkpt lat="43.83163" lon="7.5034">
        <ele>956.9</ele>
        <time>2016-08-21T22:07:44Z</time>
      </trkpt>
      <trkpt lat="43.83115" lon="7.50329">
        <ele>952.5</ele>
        <time>2016-08-21T22:08:04Z</time>
      </trkpt>
      <trkpt lat="43.82776" lon="7.50432">
        <ele>858.2</ele>
        <time>2016-08-21T22:08:24Z</time>
      </trkpt>
      <trkpt lat="43.82798" lon="7.50477">
        <ele>848.7</ele>
        <time>2016-08-21T22:08:44Z</time>
      </trkpt>
      <trkpt lat="43.8275" lon="7.50462">
        <ele>839.7</ele>
        <time>2016-08-21T22:09:04Z</time>
      </trkpt>
      <trkpt lat="43.82694" lon="7.50415">
        <ele>830.8</ele>
        <time>2016-08-21T22:09:24Z</time>
      </trkpt>
      <trkpt lat="43.82634" lon="7.50531">
        <ele>816.1</ele>
        <time>2016-08-21T22:09:44Z</time>
      </trkpt>
      <trkpt lat="43.82515" lon="7.50584">
        <ele>819.8</ele>
        <time>2016-08-21T22:10:04Z</time>
      </trkpt>
      <trkpt lat="43.82459" lon="7.50597">
        <ele>821</ele>
        <time>2016-08-21T22:10:24Z</time>
      </trkpt>
      <trkpt lat="43.82372" lon="7.50638">
        <ele>824.7</ele>
        <time>2016-08-21T22:10:44Z</time>
      </trkpt>
      <trkpt lat="43.82275" lon="7.50563">
        <ele>820.9</ele>
        <time>2016-08-21T22:11:04Z</time>
      </trkpt>
      <trkpt lat="43.82225" lon="7.5049">
        <ele>808.2</ele>
        <time>2016-08-21T22:11:24Z</time>
      </trkpt>
      <trkpt lat="43.82183" lon="7.50423">
        <ele>799.7</ele>
        <time>2016-08-21T22:11:44Z</time>
      </trkpt>
      <trkpt lat="43.82165" lon="7.50524">
        <ele>814.6</ele>
        <time>2016-08-21T22:12:04Z</time>
      </trkpt>
      <trkpt lat="43.82177" lon="7.50563">
        <ele>818.9</ele>
        <time>2016-08-21T22:12:24Z</time>
      </trkpt>
      <trkpt lat="43.82132" lon="7.5061">
        <ele>827.9</ele>
        <time>2016-08-21T22:12:44Z</time>
      </trkpt>
      <trkpt lat="43.82118" lon="7.50576">
        <ele>824.5</ele>
        <time>2016-08-21T22:13:04Z</time>
      </trkpt>
      <trkpt lat="43.82083" lon="7.5061">
        <ele>836.6</ele>
        <time>2016-08-21T22:13:24Z</time>
      </trkpt>
      <trkpt lat="43.81987" lon="7.50642">
        <ele>854.7</ele>
        <time>2016-08-21T22:13:44Z</time>
      </trkpt>
      <trkpt lat="43.81984" lon="7.5073">
        <ele>876.8</ele>
        <time>2016-08-21T22:14:04Z</time>
      </trkpt>
      <trkpt lat="43.81954" lon="7.50743">
        <ele>884.8</ele>
        <time>2016-08-21T22:14:24Z</time>
      </trkpt>
      <trkpt lat="43.81951" lon="7.50782">
        <ele>888.7</ele>
        <time>2016-08-21T22:14:44Z</time>
      </trkpt>
      <trkpt lat="43.81922" lon="7.50814">
        <ele>896.5</ele>
        <time>2016-08-21T22:15:04Z</time>
      </trkpt>
      <trkpt lat="43.8192" lon="7.5085">
        <ele>905.6</ele>
        <time>2016-08-21T22:15:24Z</time>
      </trkpt>
      <trkpt lat="43.81872" lon="7.50908">
        <ele>919.4</ele>
        <time>2016-08-21T22:15:44Z</time>
      </trkpt>
      <trkpt lat="43.81844" lon="7.50981">
        <ele>937.3</ele>
        <time>2016-08-21T22:16:04Z</time>
      </trkpt>
      <trkpt lat="43.81781" lon="7.51013">
        <ele>947.4</ele>
        <time>2016-08-21T22:16:24Z</time>
      </trkpt>
      <trkpt lat="43.81837" lon="7.51108">
        <ele>977.1</ele>
        <time>2016-08-21T22:16:44Z</time>
      </trkpt>
      <trkpt lat="43.81872" lon="7.51149">
        <ele>990.1</ele>
        <time>2016-08-21T22:17:04Z</time>
      </trkpt>
      <trkpt lat="43.81851" lon="7.51196">
        <ele>1007.1</ele>
        <time>2016-08-21T22:17:24Z</time>
      </trkpt>
      <trkpt lat="43.81795" lon="7.5123">
        <ele>1017.6</ele>
        <time>2016-08-21T22:17:44Z</time>
      </trkpt>
      <trkpt lat="43.81765" lon="7.51219">
        <ele>1016.1</ele>
        <time>2016-08-21T22:18:04Z</time>
      </trkpt>
      <trkpt lat="43.8173" lon="7.51256">
        <ele>1032.7</ele>
        <time>2016-08-21T22:18:24Z</time>
      </trkpt>
      <trkpt lat="43.81654" lon="7.51271">
        <ele>1043.3</ele>
        <time>2016-08-21T22:18:44Z</time>
      </trkpt>
      <trkpt lat="43.81628" lon="7.51254">
        <ele>1039.1</ele>
        <time>2016-08-21T22:19:04Z</time>
      </trkpt>
      <trkpt lat="43.81595" lon="7.51279">
        <ele>1054.5</ele>
        <time>2016-08-21T22:19:24Z</time>
      </trkpt>
      <trkpt lat="43.81578" lon="7.51247">
        <ele>1059.7</ele>
        <time>2016-08-21T22:19:44Z</time>
      </trkpt>
      <trkpt lat="43.81558" lon="7.51241">
        <ele>1069.3</ele>
        <time>2016-08-21T22:20:04Z</time>
      </trkpt>
      <trkpt lat="43.81529" lon="7.51301">
        <ele>1084.9</ele>
        <time>2016-08-21T22:20:24Z</time>
      </trkpt>
      <trkpt lat="43.81481" lon="7.51309">
        <ele>1085.5</ele>
        <time>2016-08-21T22:20:44Z</time>
      </trkpt>
      <trkpt lat="43.81467" lon="7.51282">
        <ele>1084.4</ele>
        <time>2016-08-21T22:21:04Z</time>
      </trkpt>
      <trkpt lat="43.81368" lon="7.51271">
        <ele>1048.8</ele>
        <time>2016-08-21T22:21:24Z</time>
      </trkpt>
      <trkpt lat="43.81374" lon="7.51355">
        <ele>1033.2</ele>
        <time>2016-08-21T22:21:44Z</time>
      </trkpt>
      <trkpt lat="43.81346" lon="7.514">
        <ele>1021.6</ele>
        <time>2016-08-21T22:22:04Z</time>
      </trkpt>
      <trkpt lat="43.81268" lon="7.51434">
        <ele>981</ele>
        <time>2016-08-21T22:22:24Z</time>
      </trkpt>
      <trkpt lat="43.81251" lon="7.51387">
        <ele>963.8</ele>
        <time>2016-08-21T22:22:44Z</time>
      </trkpt>
      <trkpt lat="43.81211" lon="7.51425">
        <ele>943.8</ele>
        <time>2016-08-21T22:23:04Z</time>
      </trkpt>
      <trkpt lat="43.81138" lon="7.5144">
        <ele>905.1</ele>
        <time>2016-08-21T22:23:24Z</time>
      </trkpt>
      <trkpt lat="43.81134" lon="7.51406">
        <ele>899</ele>
        <time>2016-08-21T22:23:44Z</time>
      </trkpt>
      <trkpt lat="43.81106" lon="7.51438">
        <ele>887.1</ele>
        <time>2016-08-21T22:24:04Z</time>
      </trkpt>
      <trkpt lat="43.81086" lon="7.51412">
        <ele>873.9</ele>
        <time>2016-08-21T22:24:24Z</time>
      </trkpt>
      <trkpt lat="43.81044" lon="7.51458">
        <ele>855.6</ele>
        <time>2016-08-21T22:24:44Z</time>
      </trkpt>
      <trkpt lat="43.81035" lon="7.5144">
        <ele>847.5</ele>
        <time>2016-08-21T22:25:04Z</time>
      </trkpt>
      <trkpt lat="43.80988" lon="7.51453">
        <ele>824</ele>
        <time>2016-08-21T22:25:24Z</time>
      </trkpt>
      <trkpt lat="43.80892" lon="7.5152">
        <ele>792.8</ele>
        <time>2016-08-21T22:25:44Z</time>
      </trkpt>
      <trkpt lat="43.80874" lon="7.51505">
        <ele>783.7</ele>
        <time>2016-08-21T22:26:04Z</time>
      </trkpt>
      <trkpt lat="43.80843" lon="7.51513">
        <ele>771.6</ele>
        <time>2016-08-21T22:26:24Z</time>
      </trkpt>
      <trkpt lat="43.80829" lon="7.51494">
        <ele>763.1</ele>
        <time>2016-08-21T22:26:44Z</time>
      </trkpt>
      <trkpt lat="43.80782" lon="7.5149">
        <ele>748.2</ele>
        <time>2016-08-21T22:27:04Z</time>
      </trkpt>
      <trkpt lat="43.8079" lon="7.51449">
        <ele>738.7</ele>
        <time>2016-08-21T22:27:24Z</time>
      </trkpt>
      <trkpt lat="43.8079" lon="7.51402">
        <ele>731</ele>
        <time>2016-08-21T22:27:44Z</time>
      </trkpt>
      <trkpt lat="43.80644" lon="7.51483">
        <ele>716.4</ele>
        <time>2016-08-21T22:28:04Z</time>
      </trkpt>
      <trkpt lat="43.80553" lon="7.51466">
        <ele>718.5</ele>
        <time>2016-08-21T22:28:24Z</time>
      </trkpt>
      <trkpt lat="43.80508" lon="7.51432">
        <ele>721.7</ele>
        <time>2016-08-21T22:28:44Z</time>
      </trkpt>
      <trkpt lat="43.80457" lon="7.51458">
        <ele>720.1</ele>
        <time>2016-08-21T22:29:04Z</time>
      </trkpt>
      <trkpt lat="43.80363" lon="7.51558">
        <ele>724</ele>
        <time>2016-08-21T22:29:24Z</time>
      </trkpt>
      <trkpt lat="43.80319" lon="7.51588">
        <ele>722.9</ele>
        <time>2016-08-21T22:29:44Z</time>
      </trkpt>
      <trkpt lat="43.80313" lon="7.51627">
        <ele>729.4</ele>
        <time>2016-08-21T22:30:04Z</time>
      </trkpt>
      <trkpt lat="43.80265" lon="7.51676">
        <ele>728.6</ele>
        <time>2016-08-21T22:30:24Z</time>
      </trkpt>
      <trkpt lat="43.80232" lon="7.51745">
        <ele>742.9</ele>
        <time>2016-08-21T22:30:44Z</time>
      </trkpt>
      <trkpt lat="43.80205" lon="7.51749">
        <ele>743.8</ele>
        <time>2016-08-21T22:31:04Z</time>
      </trkpt>
      <trkpt lat="43.80186" lon="7.51794">
        <ele>744.8</ele>
        <time>2016-08-21T22:31:24Z</time>
      </trkpt>
      <trkpt lat="43.80101" lon="7.51891">
        <ele>719.9</ele>
        <time>2016-08-21T22:31:44Z</time>
      </trkpt>
      <trkpt lat="43.80064" lon="7.51878">
        <ele>700.1</ele>
        <time>2016-08-21T22:32:04Z</time>
      </trkpt>
      <trkpt lat="43.7996" lon="7.51953">
        <ele>659.5</ele>
        <time>2016-08-21T22:32:24Z</time>
      </trkpt>
      <trkpt lat="43.79934" lon="7.51953">
        <ele>646.8</ele>
        <time>2016-08-21T22:32:44Z</time>
      </trkpt>
      <trkpt lat="43.79935" lon="7.51917">
        <ele>643.6</ele>
        <time>2016-08-21T22:33:04Z</time>
      </trkpt>
      <trkpt lat="43.79898" lon="7.51983">
        <ele>633.9</ele>
        <time>2016-08-21T22:33:24Z</time>
      </trkpt>
      <trkpt lat="43.79841" lon="7.52028">
        <ele>615.2</ele>
        <time>2016-08-21T22:33:44Z</time>
      </trkpt>
      <trkpt lat="43.79782" lon="7.52123">
        <ele>601.5</ele>
        <time>2016-08-21T22:34:04Z</time>
      </trkpt>
      <trkpt lat="43.79692" lon="7.52221">
        <ele>569.7</ele>
        <time>2016-08-21T22:34:24Z</time>
      </trkpt>
      <trkpt lat="43.79673" lon="7.52209">
        <ele>559.7</ele>
        <time>2016-08-21T22:34:44Z</time>
      </trkpt>
      <trkpt lat="43.79584" lon="7.52258">
        <ele>520.1</ele>
        <time>2016-08-21T22:35:04Z</time>
      </trkpt>
      <trkpt lat="43.79582" lon="7.52206">
        <ele>502.8</ele>
        <time>2016-08-21T22:35:24Z</time>
      </trkpt>
      <trkpt lat="43.79568" lon="7.52198">
        <ele>489.6</ele>
        <time>2016-08-21T22:35:44Z</time>
      </trkpt>
      <trkpt lat="43.79549" lon="7.52219">
        <ele>484.7</ele>
        <time>2016-08-21T22:36:04Z</time>
      </trkpt>
      <trkpt lat="43.79497" lon="7.52136">
        <ele>446</ele>
        <time>2016-08-21T22:36:24Z</time>
      </trkpt>
      <trkpt lat="43.79457" lon="7.52138">
        <ele>433.4</ele>
        <time>2016-08-21T22:36:44Z</time>
      </trkpt>
      <trkpt lat="43.79452" lon="7.52116">
        <ele>427.2</ele>
        <time>2016-08-21T22:37:04Z</time>
      </trkpt>
      <trkpt lat="43.79419" lon="7.52108">
        <ele>412.5</ele>
        <time>2016-08-21T22:37:24Z</time>
      </trkpt>
      <trkpt lat="43.79419" lon="7.52086">
        <ele>409.4</ele>
        <time>2016-08-21T22:37:44Z</time>
      </trkpt>
      <trkpt lat="43.7936" lon="7.52039">
        <ele>382</ele>
        <time>2016-08-21T22:38:04Z</time>
      </trkpt>
      <trkpt lat="43.79297" lon="7.52018">
        <ele>358.7</ele>
        <time>2016-08-21T22:38:24Z</time>
      </trkpt>
      <trkpt lat="43.79309" lon="7.51942">
        <ele>349.9</ele>
        <time>2016-08-21T22:38:44Z</time>
      </trkpt>
      <trkpt lat="43.79274" lon="7.51927">
        <ele>337.4</ele>
        <time>2016-08-21T22:39:04Z</time>
      </trkpt>
      <trkpt lat="43.79266" lon="7.51902">
        <ele>329.1</ele>
        <time>2016-08-21T22:39:24Z</time>
      </trkpt>
      <trkpt lat="43.79257" lon="7.51904">
        <ele>326.8</ele>
        <time>2016-08-21T22:39:44Z</time>
      </trkpt>
      <trkpt lat="43.79237" lon="7.51859">
        <ele>308.5</ele>
        <time>2016-08-21T22:40:04Z</time>
      </trkpt>
      <trkpt lat="43.79235" lon="7.51824">
        <ele>293.8</ele>
        <time>2016-08-21T22:40:24Z</time>
      </trkpt>
      <trkpt lat="43.7921" lon="7.51812">
        <ele>280.6</ele>
        <time>2016-08-21T22:40:44Z</time>
      </trkpt>
      <trkpt lat="43.79105" lon="7.51657">
        <ele>206.4</ele>
        <time>2016-08-21T22:41:04Z</time>
      </trkpt>
      <trkpt lat="43.79122" lon="7.51653">
        <ele>207.7</ele>
        <time>2016-08-21T22:41:24Z</time>
      </trkpt>
      <trkpt lat="43.79148" lon="7.51539">
        <ele>196.5</ele>
        <time>2016-08-21T22:41:44Z</time>
      </trkpt>
      <trkpt lat="43.79122" lon="7.51533">
        <ele>186.8</ele>
        <time>2016-08-21T22:42:04Z</time>
      </trkpt>
      <trkpt lat="43.79106" lon="7.51616">
        <ele>194.4</ele>
        <time>2016-08-21T22:42:24Z</time>
      </trkpt>
      <trkpt lat="43.79038" lon="7.51558">
        <ele>186.7</ele>
        <time>2016-08-21T22:42:44Z</time>
      </trkpt>
      <trkpt lat="43.79021" lon="7.51576">
        <ele>188.8</ele>
        <time>2016-08-21T22:43:04Z</time>
      </trkpt>
      <trkpt lat="43.78993" lon="7.51777">
        <ele>186.4</ele>
        <time>2016-08-21T22:43:24Z</time>
      </trkpt>
      <trkpt lat="43.78972" lon="7.51728">
        <ele>178.8</ele>
        <time>2016-08-21T22:43:44Z</time>
      </trkpt>
      <trkpt lat="43.78952" lon="7.51784">
        <ele>165.6</ele>
        <time>2016-08-21T22:44:04Z</time>
      </trkpt>
      <trkpt lat="43.78914" lon="7.51758">
        <ele>152.1</ele>
        <time>2016-08-21T22:44:24Z</time>
      </trkpt>
      <trkpt lat="43.78922" lon="7.51805">
        <ele>149.9</ele>
        <time>2016-08-21T22:44:44Z</time>
      </trkpt>
      <trkpt lat="43.78905" lon="7.51829">
        <ele>139.3</ele>
        <time>2016-08-21T22:45:04Z</time>
      </trkpt>
      <trkpt lat="43.78882" lon="7.51775">
        <ele>138.1</ele>
        <time>2016-08-21T22:45:24Z</time>
      </trkpt>
      <trkpt lat="43.78818" lon="7.51812">
        <ele>107.3</ele>
        <time>2016-08-21T22:45:44Z</time>
      </trkpt>
      <trkpt lat="43.78843" lon="7.51732">
        <ele>107.1</ele>
        <time>2016-08-21T22:46:04Z</time>
      </trkpt>
      <trkpt lat="43.78806" lon="7.51618">
        <ele>92.7</ele>
        <time>2016-08-21T22:46:24Z</time>
      </trkpt>
      <trkpt lat="43.78752" lon="7.51623">
        <ele>73.4</ele>
        <time>2016-08-21T22:46:44Z</time>
      </trkpt>
      <trkpt lat="43.78693" lon="7.51719">
        <ele>70.1</ele>
        <time>2016-08-21T22:47:04Z</time>
      </trkpt>
      <trkpt lat="43.78667" lon="7.51704">
        <ele>64</ele>
        <time>2016-08-21T22:47:24Z</time>
      </trkpt>
      <trkpt lat="43.78634" lon="7.5173">
        <ele>53.7</ele>
        <time>2016-08-21T22:47:44Z</time>
      </trkpt>
      <trkpt lat="43.78614" lon="7.51788">
        <ele>37.5</ele>
        <time>2016-08-21T22:48:04Z</time>
      </trkpt>
      <trkpt lat="43.78615" lon="7.51809">
        <ele>32.3</ele>
        <time>2016-08-21T22:48:24Z</time>
      </trkpt>
      <trkpt lat="43.78591" lon="7.51807">
        <ele>22.1</ele>
        <time>2016-08-21T22:48:44Z</time>
      </trkpt>
      <trkpt lat="43.78575" lon="7.51859">
        <ele>13.9</ele>
        <time>2016-08-21T22:49:04Z</time>
      </trkpt>
      <trkpt lat="43.78547" lon="7.51855">
        <ele>12.4</ele>
        <time>2016-08-21T22:49:24Z</time>
      </trkpt>
      <trkpt lat="43.78498" lon="7.5167">
        <ele>13</ele>
        <time>2016-08-21T22:49:44Z</time>
      </trkpt>
    </trkseg>
  </trk>
</gpx>